If you wish to contribute or participate in the discussions about articles you are invited to join SKYbrary as a registered user

 Actions

Capitán FAP Renán Elías Olivera International Airport

From SKYbrary Wiki

SPSO
Airport
ICAO: SPSO – IATA: PIO
Summary
Name Capitán FAP Renán Elías Olivera International Airport
Region South America and Caribbean
Territory Peru PE.gif
Location Pisco, Ica
Serving Pisco
Elevation 11.887 m
39 ft
39 ft11.887 m
Type medium airport
Coordinates 13° 44' 41.51" S, 76° 13' 13.02" W
Runways
Designator Length Width Surface ROPS
4/22 3020 m9,908.136 ft
45 m147.638 ft
ASP /


METAR
Observation SPSO 181600Z 29009KT 8000 NSC 19/15 Q1015 RMK HZ BIRD HAZARD RWY 22/04 PP000
Station Pisco
Date/Time 18 October 2019 16:00:00
Wind direction 290°
Wind speed 09 kts
Lowest cloud amount n/a
Temperature 19°C
Dew point 15°C
Humidity 77%
QNH 1015 hPa
Weather condition n/a

airport serving Pisco, an oceanside city in the Ica Region of Peru. It is used by the Peruvian Army, but it can be also used by civil aircraft.

Climatology

Warm Desert climate (Köppen climate classification BWh).

Maps

Terrain

Loading map...

Airport Layout

Loading map...


Accidents & Serious Incidents at or in vicinity of SPSO

None on SKYbrary